Time;durP1;ratioP1;P1;durP2;ratioP2;P2;SDS_P1;SDS_P2;PMS_P1;PMS_P2;Temp;Humidity;BMP_temperature;BMP_pressure;BME280_temperature;BME280_humidity;BME280_pressure;Samples;Min_cycle;Max_cycle;Signal;HPM_P1;HPM_P2
2023/09/12 00:02:18;;;;;;;5.32;4.82;;;23.30;96.70;;;;;;5087782;28;20044;-78
2023/09/12 00:04:46;;;;;;;6.25;5.38;;;23.20;96.70;;;;;;5086007;28;20086;-77
2023/09/12 00:07:14;;;;;;;5.60;5.05;;;23.20;96.70;;;;;;5086454;28;20072;-78
2023/09/12 00:09:43;;;;;;;5.80;5.30;;;23.10;96.70;;;;;;5069375;28;20495;-77
2023/09/12 00:12:15;;;;;;;5.63;4.70;;;23.00;96.70;;;;;;5087813;28;20081;-77
2023/09/12 00:14:43;;;;;;;5.80;5.03;;;23.00;96.70;;;;;;5087171;28;20497;-78
2023/09/12 00:17:12;;;;;;;6.13;4.60;;;22.90;96.70;;;;;;5086605;28;20044;-78
2023/09/12 00:19:40;;;;;;;5.22;4.72;;;22.90;96.70;;;;;;5086196;28;20052;-78
2023/09/12 00:22:08;;;;;;;5.03;4.63;;;22.80;96.70;;;;;;5084220;28;20050;-78
2023/09/12 00:24:37;;;;;;;5.60;4.70;;;22.80;96.70;;;;;;5077642;28;20047;-78
2023/09/12 00:27:06;;;;;;;4.88;4.38;;;22.70;96.70;;;;;;5071290;28;20140;-78
2023/09/12 00:29:35;;;;;;;4.85;4.38;;;22.60;96.70;;;;;;5085165;28;20048;-77
2023/09/12 00:32:05;;;;;;;5.00;4.60;;;22.70;96.70;;;;;;5086929;28;20044;-78
2023/09/12 00:34:33;;;;;;;5.22;4.72;;;22.70;96.70;;;;;;5088023;28;20505;-78
2023/09/12 00:37:01;;;;;;;5.40;4.90;;;22.70;96.70;;;;;;5107308;28;20035;-78
2023/09/12 00:39:30;;;;;;;5.43;4.93;;;22.60;96.70;;;;;;5107252;28;20417;-78
2023/09/12 00:41:58;;;;;;;5.80;5.22;;;22.60;96.70;;;;;;5099113;28;20040;-79
2023/09/12 00:44:27;;;;;;;5.63;4.75;;;22.70;96.70;;;;;;5088803;28;20073;-78
2023/09/12 00:46:57;;;;;;;7.88;5.57;;;22.60;96.70;;;;;;5107195;28;20058;-76
2023/09/12 00:49:26;;;;;;;5.60;5.10;;;22.60;96.70;;;;;;5089371;28;20390;-78
2023/09/12 00:51:56;;;;;;;5.40;4.90;;;22.60;96.70;;;;;;5088895;28;20127;-77
2023/09/12 00:54:25;;;;;;;5.38;4.88;;;22.60;96.70;;;;;;5101639;28;20989;-78
2023/09/12 00:56:54;;;;;;;4.88;4.45;;;22.60;96.70;;;;;;5072405;28;20039;-78
2023/09/12 00:59:22;;;;;;;5.57;4.97;;;22.50;96.70;;;;;;5071374;28;20572;-78
2023/09/12 01:01:51;;;;;;;7.18;5.40;;;22.40;96.70;;;;;;5106945;28;20047;-78
2023/09/12 01:04:21;;;;;;;6.78;5.07;;;22.30;96.70;;;;;;5107329;28;20097;-78
2023/09/12 01:07:03;;;;;;;6.45;5.53;;;22.50;96.70;;;;;;5088617;28;20051;-78
2023/09/12 01:09:31;;;;;;;7.30;5.70;;;22.50;96.70;;;;;;5088883;28;20622;-78
2023/09/12 01:12:02;;;;;;;8.60;7.00;;;22.40;96.70;;;;;;5071688;28;20051;-77
2023/09/12 01:14:31;;;;;;;7.68;6.88;;;22.30;96.70;;;;;;5098308;28;20142;-78
2023/09/12 01:17:01;;;;;;;7.60;6.90;;;22.30;96.70;;;;;;5075300;28;20039;-72
2023/09/12 01:19:31;;;;;;;7.15;6.55;;;22.30;96.70;;;;;;5088453;28;20409;-72
2023/09/12 01:22:23;;;;;;;7.45;6.65;;;22.30;96.70;;;;;;5106647;28;20046;-73
2023/09/12 01:25:39;;;;;;;5.43;4.93;;;22.30;96.70;;;;;;5072019;28;20109;-73
2023/09/12 01:28:10;;;;;;;7.35;5.32;;;22.40;96.70;;;;;;5060020;28;20048;-74
2023/09/12 01:30:41;;;;;;;5.20;4.80;;;22.40;96.70;;;;;;5106326;28;20043;-73
2023/09/12 01:33:11;;;;;;;4.75;4.32;;;22.40;96.70;;;;;;5106544;28;20126;-72
2023/09/12 01:35:39;;;;;;;5.90;5.25;;;22.30;96.70;;;;;;5105374;28;20467;-72
2023/09/12 01:38:07;;;;;;;5.93;5.40;;;22.30;96.70;;;;;;5106226;28;20131;-72
2023/09/12 01:40:42;;;;;;;6.03;5.18;;;22.20;96.70;;;;;;5088285;28;20039;-73
2023/09/12 01:43:15;;;;;;;6.00;4.80;;;22.00;96.70;;;;;;5087795;28;20043;-72
2023/09/12 01:45:44;;;;;;;5.97;5.25;;;22.00;96.70;;;;;;5105819;28;20044;-72
2023/09/12 01:48:18;;;;;;;5.90;4.93;;;22.00;96.70;;;;;;5087751;28;20043;-72
2023/09/12 01:50:48;;;;;;;5.88;5.18;;;22.00;96.70;;;;;;5105795;28;20118;-72
2023/09/12 01:53:17;;;;;;;5.40;5.00;;;22.00;96.70;;;;;;5070899;28;20047;-72
2023/09/12 01:55:47;;;;;;;5.28;4.85;;;22.00;96.70;;;;;;5105859;28;20096;-73
2023/09/12 01:58:17;;;;;;;6.22;5.72;;;22.10;96.70;;;;;;5087507;28;20047;-73
2023/09/12 02:00:45;;;;;;;6.40;4.90;;;22.00;96.70;;;;;;5120115;27;20043;-72
2023/09/12 02:03:13;;;;;;;5.38;4.88;;;21.90;96.70;;;;;;5087410;28;20056;-72
2023/09/12 02:05:42;;;;;;;6.07;5.57;;;21.90;96.70;;;;;;5087282;28;20542;-72
2023/09/12 02:08:10;;;;;;;5.72;5.22;;;21.80;96.70;;;;;;5087369;28;20040;-73
2023/09/12 02:10:39;;;;;;;5.75;5.25;;;21.80;96.70;;;;;;5105457;28;20416;-73
2023/09/12 02:13:07;;;;;;;5.35;4.85;;;21.80;96.70;;;;;;5070548;28;20040;-72
2023/09/12 02:15:36;;;;;;;5.30;4.80;;;21.70;96.70;;;;;;5087319;28;20417;-72
2023/09/12 02:18:05;;;;;;;6.07;4.85;;;21.60;96.70;;;;;;5070643;28;20130;-73
2023/09/12 02:20:37;;;;;;;5.65;4.93;;;21.60;96.70;;;;;;5101075;28;20616;-73
2023/09/12 02:23:05;;;;;;;4.90;4.50;;;21.40;96.70;;;;;;5095802;28;20063;-70
2023/09/12 02:25:33;;;;;;;5.45;4.90;;;21.40;96.70;;;;;;5070925;28;20088;-70
2023/09/12 02:28:03;;;;;;;5.10;4.57;;;21.40;96.70;;;;;;5105266;28;20036;-70
2023/09/12 02:30:31;;;;;;;5.43;4.85;;;21.40;96.70;;;;;;5086915;28;20040;-70
2023/09/12 02:33:00;;;;;;;5.45;4.95;;;21.40;96.70;;;;;;5086885;28;20047;-69
2023/09/12 02:35:29;;;;;;;6.35;5.30;;;21.30;96.70;;;;;;5061550;28;20050;-69
2023/09/12 02:37:57;;;;;;;6.18;4.90;;;21.30;96.70;;;;;;5087376;28;20048;-69
2023/09/12 02:40:25;;;;;;;8.15;5.32;;;21.30;96.70;;;;;;5087050;28;20043;-69
2023/09/12 02:42:53;;;;;;;6.85;4.90;;;21.40;96.70;;;;;;5070138;28;20047;-69
2023/09/12 02:45:21;;;;;;;5.25;4.85;;;21.40;96.70;;;;;;5070281;28;20042;-70
2023/09/12 02:47:49;;;;;;;5.35;4.70;;;21.40;96.70;;;;;;5087200;28;20049;-70
2023/09/12 02:50:19;;;;;;;5.97;5.05;;;21.40;96.70;;;;;;5086979;28;20684;-72
2023/09/12 02:52:48;;;;;;;7.13;4.88;;;21.30;96.70;;;;;;5101792;28;20051;-71
2023/09/12 02:55:16;;;;;;;5.30;4.70;;;21.30;96.70;;;;;;5104397;28;20039;-72
2023/09/12 02:57:44;;;;;;;5.55;4.97;;;21.30;96.70;;;;;;5104745;28;20439;-72
2023/09/12 03:00:13;;;;;;;5.60;5.10;;;21.20;96.70;;;;;;5105100;28;20063;-72
2023/09/12 03:02:41;;;;;;;5.35;4.85;;;21.20;96.70;;;;;;5086696;28;20509;-72
2023/09/12 03:05:11;;;;;;;5.50;5.00;;;21.20;96.70;;;;;;5070564;28;20040;-73
2023/09/12 03:07:40;;;;;;;5.88;4.78;;;21.20;96.70;;;;;;5086400;28;20093;-72
2023/09/12 03:10:09;;;;;;;5.97;5.20;;;21.10;96.70;;;;;;5086692;28;20044;-72
2023/09/12 03:12:37;;;;;;;6.18;4.53;;;21.00;96.70;;;;;;5086141;28;20051;-72
2023/09/12 03:15:06;;;;;;;7.85;5.22;;;21.00;96.70;;;;;;5070098;28;20525;-72
2023/09/12 03:17:38;;;;;;;5.55;5.05;;;20.90;96.70;;;;;;5083208;28;20078;-72
2023/09/12 03:20:09;;;;;;;7.07;5.55;;;20.90;96.70;;;;;;5069498;28;20134;-72
2023/09/12 03:22:37;;;;;;;6.90;5.47;;;20.90;96.70;;;;;;5104781;28;20066;-71
2023/09/12 03:25:09;;;;;;;6.63;5.43;;;20.90;96.70;;;;;;5095807;28;20049;-71
2023/09/12 03:27:37;;;;;;;5.43;4.93;;;20.80;96.70;;;;;;5090636;28;20466;-72
2023/09/12 03:30:07;;;;;;;6.60;5.10;;;20.80;96.70;;;;;;5105337;28;20505;-71
2023/09/12 03:32:35;;;;;;;4.70;4.30;;;20.80;96.70;;;;;;5073610;28;20128;-71
2023/09/12 03:35:03;;;;;;;6.00;5.35;;;20.70;96.70;;;;;;5100095;28;20075;-72
2023/09/12 03:37:31;;;;;;;7.78;4.90;;;20.50;96.70;;;;;;5073671;28;20081;-73
2023/09/12 03:39:59;;;;;;;5.60;4.57;;;20.60;96.70;;;;;;5090425;28;20039;-72
2023/09/12 03:42:29;;;;;;;7.10;5.18;;;20.60;96.70;;;;;;5090864;28;20040;-72
2023/09/12 03:45:10;;;;;;;5.05;4.38;;;20.60;96.70;;;;;;5089869;28;20533;-72
2023/09/12 03:47:38;;;;;;;5.68;4.45;;;20.50;96.70;;;;;;5089969;28;20139;-72
2023/09/12 03:50:07;;;;;;;5.68;5.13;;;20.50;96.70;;;;;;5070753;28;20058;-71
2023/09/12 03:52:35;;;;;;;5.85;4.63;;;20.40;96.70;;;;;;5086362;28;20055;-72
2023/09/12 03:55:04;;;;;;;5.45;4.07;;;20.40;96.70;;;;;;5073284;28;20134;-72
2023/09/12 03:57:34;;;;;;;7.88;4.22;;;20.40;96.70;;;;;;5072885;28;20051;-72
2023/09/12 04:00:06;;;;;;;5.28;4.53;;;20.30;96.70;;;;;;5089757;28;20047;-72
2023/09/12 04:02:40;;;;;;;5.47;4.60;;;20.30;96.70;;;;;;5091237;28;20051;-72
2023/09/12 04:05:09;;;;;;;5.13;4.72;;;20.40;96.70;;;;;;5089732;28;20480;-72
2023/09/12 04:07:37;;;;;;;5.82;5.18;;;20.30;96.70;;;;;;5090382;28;20055;-72
2023/09/12 04:10:06;;;;;;;6.43;5.35;;;20.30;96.70;;;;;;5089669;28;20040;-72
2023/09/12 04:12:36;;;;;;;5.30;4.80;;;20.30;96.70;;;;;;5085480;28;20067;-72
2023/09/12 04:15:05;;;;;;;5.32;4.63;;;20.30;96.70;;;;;;5087805;28;20147;-72
2023/09/12 04:17:33;;;;;;;9.32;5.32;;;20.30;96.70;;;;;;5072964;28;20034;-71
2023/09/12 04:20:02;;;;;;;6.95;5.20;;;20.20;96.70;;;;;;5089943;28;20044;-71
2023/09/12 04:22:30;;;;;;;5.50;4.97;;;20.20;96.70;;;;;;5107309;28;20048;-72
2023/09/12 04:24:58;;;;;;;5.45;4.38;;;20.10;96.70;;;;;;5130494;27;20063;-72
2023/09/12 04:27:27;;;;;;;5.28;4.80;;;20.20;96.70;;;;;;5090139;28;20036;-72
2023/09/12 04:29:57;;;;;;;4.55;4.13;;;20.10;96.70;;;;;;5089219;28;20460;-72
2023/09/12 04:32:25;;;;;;;5.35;4.63;;;20.20;96.70;;;;;;5089089;28;20047;-71
2023/09/12 04:34:53;;;;;;;4.57;4.05;;;20.20;96.70;;;;;;5102237;28;20059;-71
2023/09/12 04:37:21;;;;;;;5.55;4.47;;;20.20;96.70;;;;;;5107511;28;20139;-71
2023/09/12 04:39:49;;;;;;;5.30;4.47;;;20.30;96.70;;;;;;5107242;28;20126;-72
2023/09/12 04:42:17;;;;;;;5.30;4.80;;;20.30;96.70;;;;;;5096901;27;20040;-71
2023/09/12 04:44:46;;;;;;;5.57;4.50;;;20.20;96.70;;;;;;5088825;28;20516;-71
2023/09/12 04:47:15;;;;;;;5.32;4.57;;;20.30;96.70;;;;;;5072671;28;20043;-71
2023/09/12 04:49:44;;;;;;;5.50;5.00;;;20.10;96.70;;;;;;5089155;28;20520;-72
2023/09/12 04:52:12;;;;;;;4.82;4.32;;;20.00;96.70;;;;;;5107078;28;20043;-72
2023/09/12 04:54:40;;;;;;;5.30;4.80;;;20.10;96.70;;;;;;5131054;27;20133;-71
2023/09/12 04:57:09;;;;;;;7.20;5.20;;;20.00;96.70;;;;;;5072124;28;20051;-72
2023/09/12 04:59:37;;;;;;;5.97;4.70;;;20.00;96.70;;;;;;5071942;28;20054;-71
2023/09/12 05:02:05;;;;;;;5.18;4.50;;;20.00;96.70;;;;;;5100251;28;20521;-71
2023/09/12 05:04:35;;;;;;;7.75;5.30;;;20.00;96.70;;;;;;5107178;28;20047;-71
2023/09/12 05:07:04;;;;;;;5.53;5.00;;;20.00;96.70;;;;;;5088652;28;20043;-72
2023/09/12 05:09:32;;;;;;;5.25;4.72;;;19.90;96.70;;;;;;5087655;28;20036;-72
2023/09/12 05:12:00;;;;;;;5.53;4.90;;;19.80;96.70;;;;;;5080737;28;20051;-72
2023/09/12 05:14:28;;;;;;;5.63;4.82;;;19.90;96.70;;;;;;5088506;28;20054;-72
2023/09/12 05:16:56;;;;;;;6.07;4.78;;;20.00;96.70;;;;;;5106579;28;20405;-72
2023/09/12 05:19:26;;;;;;;8.98;5.00;;;19.90;96.70;;;;;;5106780;28;20443;-72
2023/09/12 05:21:56;;;;;;;6.25;5.20;;;19.90;96.70;;;;;;5088255;28;20056;-72
2023/09/12 05:24:24;;;;;;;8.85;5.45;;;19.90;96.70;;;;;;5088155;28;20043;-71
2023/09/12 05:26:52;;;;;;;6.05;5.45;;;20.00;96.70;;;;;;5088283;28;20059;-71
2023/09/12 05:29:20;;;;;;;7.32;5.30;;;19.90;96.70;;;;;;5105915;28;20131;-72
2023/09/12 05:31:48;;;;;;;6.65;5.63;;;19.90;96.70;;;;;;5105843;28;20331;-72
2023/09/12 05:34:16;;;;;;;6.95;5.80;;;20.00;96.70;;;;;;5088344;28;20144;-71
2023/09/12 05:36:44;;;;;;;5.53;4.97;;;20.00;96.70;;;;;;5106011;28;20115;-72
2023/09/12 05:39:14;;;;;;;7.05;5.30;;;20.10;96.70;;;;;;5088442;28;20521;-71
2023/09/12 05:41:42;;;;;;;7.10;5.60;;;20.20;96.70;;;;;;5087809;28;20143;-72
2023/09/12 05:44:12;;;;;;;7.00;5.65;;;20.20;96.70;;;;;;5087455;28;20077;-71
2023/09/12 05:46:40;;;;;;;6.28;5.68;;;20.00;96.70;;;;;;5071226;28;20055;-72
2023/09/12 05:49:08;;;;;;;7.35;5.82;;;20.00;96.70;;;;;;5087283;28;20039;-71
2023/09/12 05:51:37;;;;;;;7.70;5.70;;;20.00;96.70;;;;;;5105135;28;20126;-72
2023/09/12 05:54:05;;;;;;;7.80;6.20;;;20.00;96.70;;;;;;5069763;28;20528;-71
2023/09/12 05:56:35;;;;;;;8.65;6.25;;;20.00;96.70;;;;;;5087877;28;20051;-72
2023/09/12 05:59:03;;;;;;;12.10;7.07;;;20.10;96.70;;;;;;5087373;28;20071;-71
2023/09/12 06:01:31;;;;;;;10.23;8.70;;;20.10;96.70;;;;;;5071291;28;20054;-71
2023/09/12 06:03:59;;;;;;;10.77;8.45;;;20.20;96.70;;;;;;5087536;28;20501;-71
2023/09/12 06:06:28;;;;;;;10.90;8.35;;;20.30;96.70;;;;;;5064519;28;20048;-71
2023/09/12 06:08:57;;;;;;;12.85;8.18;;;20.40;96.70;;;;;;5069120;28;20409;-72
2023/09/12 06:11:25;;;;;;;10.50;8.05;;;20.40;96.70;;;;;;5081956;28;20127;-72
2023/09/12 06:13:55;;;;;;;9.27;7.78;;;20.40;96.70;;;;;;5086315;28;20156;-72
2023/09/12 06:16:23;;;;;;;13.63;8.40;;;20.30;96.70;;;;;;5070574;28;20054;-71
2023/09/12 06:18:53;;;;;;;9.75;8.55;;;20.40;96.70;;;;;;5087443;28;20037;-71
2023/09/12 06:21:21;;;;;;;10.88;8.30;;;20.50;96.70;;;;;;5087436;28;20739;-71
2023/09/12 06:24:10;;;;;;;9.60;8.48;;;20.60;96.70;;;;;;5087673;28;20063;-71
2023/09/12 06:26:39;;;;;;;10.90;7.95;;;20.50;96.70;;;;;;5079676;28;20051;-70
2023/09/12 06:29:08;;;;;;;9.68;7.20;;;20.50;96.70;;;;;;5087438;28;20126;-71
2023/09/12 06:31:36;;;;;;;8.52;7.50;;;20.60;96.70;;;;;;5105086;28;20047;-72
2023/09/12 06:34:05;;;;;;;11.57;7.00;;;20.60;96.70;;;;;;5071043;28;20047;-71
2023/09/12 06:36:33;;;;;;;7.88;6.78;;;20.60;96.70;;;;;;5087706;28;20619;-71
2023/09/12 06:39:03;;;;;;;8.27;6.88;;;20.60;96.70;;;;;;5078921;28;20071;-71
2023/09/12 06:41:31;;;;;;;7.72;6.70;;;20.70;96.70;;;;;;5087156;28;20050;-71
2023/09/12 06:44:00;;;;;;;9.60;6.43;;;20.80;96.70;;;;;;5086386;28;20583;-72
2023/09/12 06:46:29;;;;;;;9.07;7.43;;;21.00;96.70;;;;;;5096996;28;20040;-71
2023/09/12 06:48:57;;;;;;;7.45;6.53;;;21.10;96.70;;;;;;5105214;28;20059;-71
2023/09/12 06:51:25;;;;;;;9.63;7.30;;;21.00;96.70;;;;;;5105010;28;20039;-72
2023/09/12 06:53:57;;;;;;;10.32;7.57;;;21.00;96.70;;;;;;5104900;28;20132;-70
2023/09/12 06:56:25;;;;;;;10.95;8.35;;;21.00;96.70;;;;;;5070457;28;20043;-71
2023/09/12 06:58:55;;;;;;;9.68;8.13;;;21.10;96.70;;;;;;5104549;28;20046;-72
2023/09/12 07:01:22;;;;;;;11.07;8.07;;;21.10;96.70;;;;;;5095195;28;20051;-71
2023/09/12 07:03:54;;;;;;;11.35;7.80;;;21.10;96.70;;;;;;5105012;28;20035;-72
2023/09/12 07:06:23;;;;;;;8.57;7.65;;;21.10;96.70;;;;;;5108045;28;20055;-71
2023/09/12 07:08:53;;;;;;;7.88;7.07;;;21.20;96.70;;;;;;5091231;28;20555;-71
2023/09/12 07:11:21;;;;;;;9.35;7.05;;;21.40;96.70;;;;;;5108832;28;20042;-71
2023/09/12 07:13:49;;;;;;;7.60;6.60;;;21.50;96.70;;;;;;5090208;28;20040;-72
2023/09/12 07:16:20;;;;;;;8.45;7.03;;;21.50;96.70;;;;;;5082706;28;20055;-71
2023/09/12 07:18:49;;;;;;;7.35;6.63;;;21.60;96.70;;;;;;5073853;28;20662;-71
2023/09/12 07:21:19;;;;;;;11.88;6.80;;;21.60;96.70;;;;;;5090813;28;20079;-70
2023/09/12 07:23:48;;;;;;;8.63;6.93;;;21.60;96.70;;;;;;5108977;28;20043;-71
2023/09/12 07:26:16;;;;;;;10.23;7.55;;;21.80;96.70;;;;;;5090818;28;20071;-70
2023/09/12 07:28:45;;;;;;;10.25;7.82;;;21.80;96.70;;;;;;5108173;28;20051;-72
2023/09/12 07:31:12;;;;;;;11.57;7.20;;;21.80;96.70;;;;;;5108735;28;20455;-71
2023/09/12 07:33:41;;;;;;;10.25;6.78;;;21.70;96.70;;;;;;5108749;28;20112;-71
2023/09/12 07:36:09;;;;;;;9.48;6.45;;;21.80;96.70;;;;;;5090184;28;20056;-71
2023/09/12 07:38:39;;;;;;;12.68;7.45;;;21.90;96.70;;;;;;5108681;28;20050;-72
2023/09/12 07:41:08;;;;;;;7.32;6.63;;;22.10;96.70;;;;;;5104999;28;20134;-71
2023/09/12 07:43:35;;;;;;;10.10;6.82;;;22.30;96.70;;;;;;5099190;28;20047;-72
2023/09/12 07:46:03;;;;;;;8.23;6.65;;;22.40;96.70;;;;;;5108137;28;20058;-71
2023/09/12 07:48:32;;;;;;;7.55;6.60;;;22.40;96.70;;;;;;5108452;28;20074;-72
2023/09/12 07:51:00;;;;;;;7.50;6.72;;;22.50;96.70;;;;;;5090428;28;20048;-72
2023/09/12 07:53:28;;;;;;;8.63;6.65;;;22.50;96.70;;;;;;5089818;28;20040;-71
2023/09/12 07:56:01;;;;;;;9.60;6.65;;;22.60;96.70;;;;;;5108531;28;20468;-71
2023/09/12 07:58:29;;;;;;;7.53;6.72;;;22.70;96.70;;;;;;5086894;28;20048;-71
2023/09/12 08:00:57;;;;;;;8.40;6.57;;;22.70;96.70;;;;;;5064821;28;20043;-71
2023/09/12 08:03:25;;;;;;;7.90;6.40;;;22.70;96.70;;;;;;5107987;28;20569;-72
2023/09/12 08:05:57;;;;;;;7.50;5.97;;;22.70;96.70;;;;;;5090193;28;20062;-71
2023/09/12 08:08:25;;;;;;;8.32;6.18;;;22.80;96.70;;;;;;5107894;28;20399;-72
2023/09/12 08:10:53;;;;;;;6.28;5.68;;;22.90;96.70;;;;;;5090091;28;20040;-72
2023/09/12 08:13:22;;;;;;;7.63;6.03;;;23.00;96.70;;;;;;5107055;28;20054;-72
2023/09/12 08:15:50;;;;;;;7.25;5.65;;;23.00;96.70;;;;;;5081527;28;20052;-72
2023/09/12 08:18:18;;;;;;;6.32;5.72;;;23.10;96.70;;;;;;5089178;28;20066;-72
2023/09/12 08:20:47;;;;;;;6.18;5.57;;;23.20;96.70;;;;;;5108569;28;20043;-71
2023/09/12 08:23:15;;;;;;;6.45;5.85;;;23.30;96.70;;;;;;5086354;28;20040;-71
2023/09/12 08:25:43;;;;;;;6.30;5.22;;;23.30;96.70;;;;;;5089047;28;20043;-71
2023/09/12 08:28:11;;;;;;;7.28;5.30;;;23.40;96.70;;;;;;5098778;28;20134;-71
2023/09/12 08:30:40;;;;;;;6.55;5.40;;;23.40;96.70;;;;;;5107547;28;20051;-71
2023/09/12 08:33:08;;;;;;;5.65;5.05;;;23.50;96.70;;;;;;5089196;28;20100;-71
2023/09/12 08:35:36;;;;;;;6.85;5.35;;;23.60;96.70;;;;;;5085465;28;20052;-71
2023/09/12 08:38:05;;;;;;;5.95;5.43;;;23.70;96.70;;;;;;5068683;28;20036;-72
2023/09/12 08:40:35;;;;;;;5.70;4.85;;;23.80;96.70;;;;;;5085534;28;20078;-71
2023/09/12 08:43:03;;;;;;;6.25;5.30;;;23.90;96.70;;;;;;5087081;28;20560;-71
2023/09/12 08:45:31;;;;;;;6.35;5.30;;;24.00;96.70;;;;;;5085659;28;20047;-71
2023/09/12 08:48:03;;;;;;;9.40;5.72;;;24.10;96.70;;;;;;5085587;28;20672;-72
2023/09/12 08:50:34;;;;;;;5.78;5.28;;;24.20;96.70;;;;;;5085188;28;20040;-72
2023/09/12 08:53:03;;;;;;;7.53;5.57;;;24.30;96.70;;;;;;5085267;28;20131;-72
2023/09/12 08:55:36;;;;;;;7.03;5.15;;;24.40;96.70;;;;;;5068927;28;20056;-71
2023/09/12 08:58:05;;;;;;;5.80;5.15;;;24.50;96.70;;;;;;5076562;28;20036;-72
2023/09/12 09:00:35;;;;;;;6.28;4.97;;;24.60;96.70;;;;;;5086770;28;20112;-72
2023/09/12 09:03:05;;;;;;;7.63;5.35;;;24.70;96.70;;;;;;5085544;28;21142;-71
2023/09/12 09:05:36;;;;;;;8.07;5.40;;;24.80;96.70;;;;;;5086418;28;20565;-71
2023/09/12 09:08:05;;;;;;;9.52;5.50;;;24.90;96.70;;;;;;5086324;28;20389;-72
2023/09/12 09:10:33;;;;;;;5.95;4.97;;;24.90;96.70;;;;;;5086214;28;20063;-71
2023/09/12 09:13:06;;;;;;;8.35;5.43;;;25.00;96.70;;;;;;5077201;28;20517;-71
2023/09/12 09:15:35;;;;;;;13.40;6.00;;;25.00;96.70;;;;;;5084900;28;20623;-71
2023/09/12 09:18:05;;;;;;;7.00;4.47;;;25.00;96.70;;;;;;5068233;28;20060;-71
2023/09/12 09:20:35;;;;;;;12.38;5.68;;;25.10;96.70;;;;;;5084768;28;20051;-72
2023/09/12 09:23:10;;;;;;;6.82;5.18;;;25.10;96.70;;;;;;5084507;28;20048;-72
2023/09/12 09:25:41;;;;;;;5.25;4.80;;;25.20;96.70;;;;;;5084811;28;20071;-72
2023/09/12 09:28:17;;;;;;;7.03;4.95;;;25.40;96.70;;;;;;5084201;28;20040;-71
2023/09/12 09:30:47;;;;;;;7.82;5.75;;;25.50;96.70;;;;;;5083743;28;20048;-71
2023/09/12 09:33:17;;;;;;;6.32;4.85;;;25.60;96.70;;;;;;5083190;28;20048;-72
2023/09/12 09:35:48;;;;;;;8.10;5.30;;;25.60;96.70;;;;;;5097296;28;20092;-72
2023/09/12 09:38:19;;;;;;;6.60;5.53;;;25.70;96.70;;;;;;5087777;28;20123;-72
2023/09/12 09:40:50;;;;;;;7.18;5.45;;;25.70;96.70;;;;;;5106651;28;20040;-71
2023/09/12 09:43:20;;;;;;;6.78;5.50;;;25.80;96.70;;;;;;5106702;28;20071;-71
2023/09/12 09:45:49;;;;;;;7.97;5.38;;;25.90;96.70;;;;;;5105960;28;20040;-71
2023/09/12 09:48:20;;;;;;;10.63;5.97;;;26.00;96.70;;;;;;5087854;28;20138;-70
2023/09/12 09:50:49;;;;;;;6.65;5.70;;;26.10;96.70;;;;;;5086888;28;20044;-71
2023/09/12 09:53:17;;;;;;;8.85;5.68;;;26.20;96.70;;;;;;5112830;27;20044;-71
2023/09/12 09:55:45;;;;;;;6.85;5.32;;;26.20;96.70;;;;;;5105910;28;20554;-72
2023/09/12 09:58:18;;;;;;;6.80;5.50;;;26.30;96.70;;;;;;5087528;28;20377;-72
2023/09/12 10:00:48;;;;;;;7.00;5.22;;;26.40;96.70;;;;;;5088325;28;20048;-71
2023/09/12 10:03:22;;;;;;;8.60;5.35;;;26.50;96.70;;;;;;5096144;28;20043;-72
2023/09/12 10:05:54;;;;;;;6.13;5.15;;;26.70;96.70;;;;;;5088140;28;20063;-71
2023/09/12 10:08:25;;;;;;;9.10;5.18;;;26.80;96.70;;;;;;5087394;28;20134;-72
2023/09/12 10:10:53;;;;;;;6.03;5.43;;;26.90;96.70;;;;;;5105715;28;20051;-72
2023/09/12 10:13:26;;;;;;;5.70;5.10;;;26.90;96.70;;;;;;5086792;28;20448;-71
2023/09/12 10:15:56;;;;;;;8.88;5.82;;;27.10;96.70;;;;;;5079803;28;20059;-72
2023/09/12 10:18:29;;;;;;;5.75;5.07;;;27.20;96.70;;;;;;5087699;28;20117;-72
2023/09/12 10:21:08;;;;;;;4.95;4.55;;;27.30;96.70;;;;;;5070955;28;20070;-72
2023/09/12 10:23:41;;;;;;;5.28;4.72;;;27.40;96.70;;;;;;5105497;28;20578;-72
2023/09/12 10:26:12;;;;;;;5.65;4.80;;;27.50;96.70;;;;;;5080629;28;20052;-73
2023/09/12 10:28:42;;;;;;;6.80;5.28;;;27.40;96.70;;;;;;5087207;28;20047;-72
2023/09/12 10:31:13;;;;;;;6.60;5.60;;;27.60;96.70;;;;;;5087294;28;20100;-73
2023/09/12 10:33:44;;;;;;;7.75;5.18;;;27.60;96.70;;;;;;5087193;28;20199;-73
2023/09/12 10:36:17;;;;;;;6.10;5.55;;;27.70;96.70;;;;;;5105035;28;20078;-73
2023/09/12 10:38:48;;;;;;;8.27;4.95;;;27.80;96.70;;;;;;5105029;28;20058;-73
2023/09/12 10:41:16;;;;;;;5.10;4.70;;;27.90;96.70;;;;;;5086640;28;20417;-74
2023/09/12 10:43:52;;;;;;;6.38;5.45;;;27.80;96.70;;;;;;5086093;28;20047;-73
2023/09/12 10:46:21;;;;;;;6.28;5.10;;;27.90;96.70;;;;;;5104836;28;20036;-73
2023/09/12 10:48:51;;;;;;;5.22;4.20;;;28.00;96.70;;;;;;5087017;28;20047;-73
2023/09/12 10:51:20;;;;;;;4.68;4.28;;;28.00;96.70;;;;;;5105184;28;20069;-74
2023/09/12 10:53:49;;;;;;;4.63;4.22;;;28.00;96.70;;;;;;5071643;28;20435;-74
2023/09/12 10:56:19;;;;;;;4.43;4.03;;;28.00;96.70;;;;;;5070482;28;20530;-73
2023/09/12 10:59:10;;;;;;;5.43;4.75;;;28.00;96.70;;;;;;5070053;28;20168;-74
2023/09/12 11:01:40;;;;;;;5.63;4.65;;;28.20;96.70;;;;;;5082428;28;20052;-72
2023/09/12 11:04:33;;;;;;;7.55;4.65;;;28.30;96.70;;;;;;5105295;28;20075;-72
2023/09/12 11:07:01;;;;;;;4.88;4.20;;;28.50;96.70;;;;;;5079740;28;20412;-72
2023/09/12 11:09:30;;;;;;;7.18;4.18;;;28.70;96.70;;;;;;5104606;28;20040;-72
2023/09/12 11:12:02;;;;;;;5.13;4.05;;;28.80;96.70;;;;;;5105281;28;20035;-71
2023/09/12 11:14:33;;;;;;;6.13;4.65;;;28.80;96.70;;;;;;5104817;28;20039;-72
2023/09/12 11:17:23;;;;;;;6.28;4.72;;;28.80;96.70;;;;;;5069969;28;20047;-72
2023/09/12 11:19:53;;;;;;;5.45;4.47;;;28.80;96.70;;;;;;5105197;28;20139;-73
2023/09/12 11:22:26;;;;;;;7.25;4.50;;;28.80;96.70;;;;;;5104871;28;20039;-72
2023/09/12 11:24:58;;;;;;;8.80;4.50;;;28.80;96.70;;;;;;5070004;28;20051;-71
2023/09/12 11:27:32;;;;;;;8.88;4.57;;;29.10;96.70;;;;;;5097262;28;20048;-71
2023/09/12 11:30:05;;;;;;;5.18;4.20;;;29.20;96.70;;;;;;5086808;28;20039;-71
2023/09/12 11:32:36;;;;;;;4.57;3.97;;;29.20;96.70;;;;;;5087030;28;20088;-72
2023/09/12 11:35:08;;;;;;;5.75;4.00;;;29.20;96.70;;;;;;5085909;28;20428;-72
2023/09/12 11:37:37;;;;;;;5.40;4.15;;;29.30;96.70;;;;;;5086778;28;20574;-72
2023/09/12 11:40:17;;;;;;;5.10;4.05;;;29.50;96.70;;;;;;5104758;28;20049;-72
2023/09/12 11:42:47;;;;;;;7.40;4.85;;;29.60;96.70;;;;;;5066564;28;20403;-72
2023/09/12 11:45:17;;;;;;;5.93;4.60;;;29.60;96.70;;;;;;5109121;28;20502;-71
2023/09/12 11:47:46;;;;;;;4.80;4.30;;;29.60;96.70;;;;;;5086121;28;20118;-71
2023/09/12 11:50:30;;;;;;;4.65;4.20;;;29.70;96.70;;;;;;5077854;28;20138;-72
2023/09/12 11:53:03;;;;;;;6.63;4.43;;;29.80;96.70;;;;;;5090346;28;20055;-72
2023/09/12 11:55:32;;;;;;;4.60;4.20;;;29.80;96.70;;;;;;5108528;28;20074;-71
2023/09/12 11:58:01;;;;;;;4.97;4.50;;;29.90;96.70;;;;;;5089383;28;20047;-71
2023/09/12 12:00:29;;;;;;;6.50;4.47;;;30.00;96.70;;;;;;5108732;28;20447;-71
2023/09/12 12:02:58;;;;;;;6.05;4.68;;;30.10;96.70;;;;;;5108083;28;20083;-72
2023/09/12 12:05:28;;;;;;;7.50;4.60;;;30.20;96.70;;;;;;5099529;28;20092;-72
2023/09/12 12:07:58;;;;;;;5.93;5.00;;;30.40;96.70;;;;;;5073514;28;20050;-72
2023/09/12 12:10:50;;;;;;;4.75;4.28;;;30.20;96.70;;;;;;5075858;28;20486;-73
2023/09/12 12:13:19;;;;;;;7.05;5.05;;;30.00;96.70;;;;;;5108045;28;20814;-72
2023/09/12 12:15:47;;;;;;;5.70;4.90;;;30.00;96.70;;;;;;5072895;28;20051;-72
2023/09/12 12:18:15;;;;;;;5.55;4.60;;;30.10;96.70;;;;;;5108058;28;20040;-72
2023/09/12 12:20:45;;;;;;;5.30;4.80;;;30.30;96.70;;;;;;5107614;28;20040;-71
2023/09/12 12:23:13;;;;;;;6.72;4.80;;;30.30;96.70;;;;;;5107678;28;20442;-72
2023/09/12 12:25:41;;;;;;;5.75;5.13;;;30.30;96.70;;;;;;5107621;28;20071;-71
2023/09/12 12:28:10;;;;;;;4.80;4.38;;;30.40;96.70;;;;;;5089379;28;20573;-71
2023/09/12 12:30:38;;;;;;;5.20;4.72;;;30.60;96.70;;;;;;5089661;28;20043;-72
2023/09/12 12:33:09;;;;;;;6.20;4.90;;;30.60;96.70;;;;;;5107402;28;20036;-72
2023/09/12 12:36:02;;;;;;;5.70;5.20;;;30.70;96.70;;;;;;5088604;28;20715;-71
2023/09/12 12:38:34;;;;;;;6.15;5.03;;;30.80;96.70;;;;;;5107259;28;20050;-72
2023/09/12 12:41:04;;;;;;;4.43;4.03;;;30.90;96.70;;;;;;5106947;28;20565;-72
2023/09/12 12:43:32;;;;;;;5.13;4.60;;;31.00;96.70;;;;;;5088743;28;20473;-72
2023/09/12 12:46:00;;;;;;;5.28;4.78;;;30.90;96.70;;;;;;5097112;28;20567;-71
2023/09/12 12:48:33;;;;;;;6.25;4.25;;;30.90;96.70;;;;;;5072245;28;20540;-72
2023/09/12 12:51:16;;;;;;;6.07;4.40;;;31.10;96.70;;;;;;5089423;28;20067;-72
2023/09/12 12:53:46;;;;;;;4.95;4.55;;;31.10;96.70;;;;;;5089229;28;20043;-73
2023/09/12 12:56:22;;;;;;;;;;;31.30;96.70;;;;;;5088950;28;20116;-73
2023/09/12 12:58:51;;;;;;;4.43;4.03;;;31.50;96.70;;;;;;5107244;28;19923;-72
2023/09/12 13:01:21;;;;;;;4.97;3.80;;;31.40;96.70;;;;;;5106853;28;20070;-73